createdAt,value
2023-05-12T00:00:35.661Z,0
2023-05-12T00:01:36.278Z,0
2023-05-12T00:02:36.997Z,0
2023-05-12T00:03:38.148Z,0
2023-05-12T00:04:38.848Z,0
2023-05-12T00:05:39.389Z,0
2023-05-12T00:06:39.980Z,0
2023-05-12T00:07:40.597Z,0
2023-05-12T00:08:41.217Z,0
2023-05-12T00:09:41.838Z,0
2023-05-12T00:10:42.431Z,0
2023-05-12T00:11:43.044Z,0
2023-05-12T00:12:43.649Z,0
2023-05-12T00:13:44.294Z,0
2023-05-12T00:14:44.852Z,0
2023-05-12T00:15:45.450Z,0
2023-05-12T00:16:46.117Z,0
2023-05-12T00:17:46.740Z,0
2023-05-12T00:18:47.347Z,0
2023-05-12T00:19:47.922Z,0
2023-05-12T00:20:48.520Z,0
2023-05-12T00:21:49.125Z,0
2023-05-12T00:22:49.715Z,0
2023-05-12T00:23:50.323Z,0
2023-05-12T00:24:50.923Z,0
2023-05-12T00:25:51.512Z,0
2023-05-12T00:26:52.104Z,0
2023-05-12T00:27:52.725Z,0
2023-05-12T00:28:53.325Z,0
2023-05-12T00:29:53.925Z,0
2023-05-12T00:30:54.692Z,0
2023-05-12T00:31:55.318Z,0
2023-05-12T00:32:55.845Z,0
2023-05-12T00:33:56.425Z,0
2023-05-12T00:34:57.013Z,0
2023-05-12T00:35:57.618Z,0
2023-05-12T00:36:58.209Z,0
2023-05-12T00:37:58.808Z,0
2023-05-12T00:38:59.422Z,0
2023-05-12T00:40:00.006Z,0
2023-05-12T00:41:00.609Z,0
2023-05-12T00:42:01.230Z,0
2023-05-12T00:43:01.818Z,0
2023-05-12T00:44:02.421Z,0
2023-05-12T00:45:03.045Z,0
2023-05-12T00:46:03.710Z,0
2023-05-12T00:47:04.249Z,0
2023-05-12T00:48:04.931Z,0
2023-05-12T00:49:05.519Z,0
2023-05-12T00:50:06.114Z,0
2023-05-12T00:51:06.711Z,0
2023-05-12T00:52:07.329Z,0
2023-05-12T00:53:07.927Z,0
2023-05-12T00:54:08.525Z,0
2023-05-12T00:55:09.140Z,0
2023-05-12T00:56:09.740Z,0
2023-05-12T00:57:10.347Z,0
2023-05-12T00:58:10.929Z,0
2023-05-12T00:59:11.528Z,0
2023-05-12T01:00:12.130Z,0
2023-05-12T01:01:12.795Z,0
2023-05-12T01:02:13.404Z,0
2023-05-12T01:03:14.130Z,0
2023-05-12T01:04:14.779Z,0
2023-05-12T01:05:15.386Z,0
2023-05-12T01:06:16.002Z,0
2023-05-12T01:07:16.608Z,0
2023-05-12T01:08:17.202Z,0
2023-05-12T01:09:17.801Z,0
2023-05-12T01:10:18.644Z,0
2023-05-12T01:11:19.502Z,0
2023-05-12T01:12:20.120Z,0
2023-05-12T01:13:20.715Z,0
2023-05-12T01:14:21.309Z,0
2023-05-12T01:15:21.904Z,0
2023-05-12T01:16:22.502Z,0
2023-05-12T01:17:23.168Z,0
2023-05-12T01:18:23.834Z,0
2023-05-12T01:19:24.444Z,0
2023-05-12T01:20:25.049Z,0
2023-05-12T01:21:25.661Z,0
2023-05-12T01:22:26.272Z,0
2023-05-12T01:23:26.857Z,0
2023-05-12T01:24:27.474Z,0
2023-05-12T01:25:28.055Z,0
2023-05-12T01:26:28.656Z,0
2023-05-12T01:27:29.252Z,0
2023-05-12T01:28:29.876Z,0
2023-05-12T01:29:30.481Z,0
2023-05-12T01:30:31.069Z,0
2023-05-12T01:31:31.715Z,0
2023-05-12T01:32:32.296Z,0
2023-05-12T01:33:32.888Z,0
2023-05-12T01:34:33.492Z,0
2023-05-12T01:35:34.092Z,0
2023-05-12T01:36:34.681Z,0
2023-05-12T01:37:35.273Z,0
2023-05-12T01:38:35.874Z,0
2023-05-12T01:39:36.469Z,0
2023-05-12T01:40:37.085Z,0
2023-05-12T01:41:37.740Z,0
2023-05-12T01:42:38.284Z,0
2023-05-12T01:43:38.883Z,0
2023-05-12T01:44:39.479Z,0
2023-05-12T01:45:40.068Z,0
2023-05-12T01:46:40.735Z,0
2023-05-12T01:47:41.313Z,0
2023-05-12T01:48:41.897Z,0
2023-05-12T01:49:42.513Z,0
2023-05-12T01:50:43.131Z,0
2023-05-12T01:51:43.730Z,0
2023-05-12T01:52:44.324Z,0
2023-05-12T01:53:44.922Z,0
2023-05-12T01:54:45.518Z,0
2023-05-12T01:55:46.117Z,0
2023-05-12T01:56:46.722Z,0
2023-05-12T01:57:47.336Z,0
2023-05-12T01:58:47.971Z,0
2023-05-12T01:59:48.540Z,0
2023-05-12T02:00:49.126Z,0
2023-05-12T02:01:49.773Z,0
2023-05-12T02:02:50.406Z,0
2023-05-12T02:03:51.089Z,0
2023-05-12T02:04:51.723Z,0
2023-05-12T02:05:52.336Z,0
2023-05-12T02:06:52.964Z,0
2023-05-12T02:07:53.530Z,0
2023-05-12T02:08:54.150Z,0
2023-05-12T02:09:54.794Z,0
2023-05-12T02:10:55.368Z,0
2023-05-12T02:11:55.959Z,0
2023-05-12T02:12:56.560Z,0
2023-05-12T02:13:57.152Z,0
2023-05-12T02:14:57.757Z,0
2023-05-12T02:15:58.379Z,0
2023-05-12T02:16:59.024Z,0
2023-05-12T02:17:59.624Z,0
2023-05-12T02:19:00.218Z,0
2023-05-12T02:20:00.834Z,0
2023-05-12T02:21:01.460Z,0
2023-05-12T02:22:02.050Z,0
2023-05-12T02:23:02.648Z,0
2023-05-12T02:24:03.246Z,0
2023-05-12T02:25:03.847Z,0
2023-05-12T02:26:04.454Z,0
2023-05-12T02:27:05.035Z,0
2023-05-12T02:28:05.651Z,0
2023-05-12T02:29:06.225Z,0
2023-05-12T02:30:06.826Z,0
2023-05-12T02:31:07.448Z,0
2023-05-12T02:32:08.104Z,0
2023-05-12T02:33:08.666Z,0
2023-05-12T02:34:09.264Z,0
2023-05-12T02:35:09.872Z,0
2023-05-12T02:36:10.476Z,0
2023-05-12T02:37:11.077Z,0
2023-05-12T02:38:11.684Z,0
2023-05-12T02:39:12.288Z,0
2023-05-12T02:40:12.872Z,0
2023-05-12T02:41:13.490Z,0
2023-05-12T02:42:14.081Z,0
2023-05-12T02:43:14.679Z,0
2023-05-12T02:44:15.275Z,0
2023-05-12T02:45:15.869Z,0
2023-05-12T02:46:16.484Z,0
2023-05-12T02:47:17.102Z,0
2023-05-12T02:48:17.697Z,0
2023-05-12T02:49:18.296Z,0
2023-05-12T02:50:19.113Z,0
2023-05-12T02:51:19.783Z,0
2023-05-12T02:52:20.381Z,0
2023-05-12T02:53:20.979Z,0
2023-05-12T02:54:21.570Z,0
2023-05-12T02:55:22.170Z,0
2023-05-12T02:56:22.761Z,0
2023-05-12T02:57:23.356Z,4
2023-05-12T02:58:23.957Z,4
2023-05-12T02:59:24.549Z,0
2023-05-12T03:00:25.147Z,0
2023-05-12T03:01:25.791Z,4
2023-05-12T03:02:26.478Z,4
2023-05-12T03:03:27.187Z,0
2023-05-12T03:04:27.792Z,4
2023-05-12T03:05:28.426Z,4
2023-05-12T03:06:28.999Z,4
2023-05-12T03:07:29.609Z,8
2023-05-12T03:08:30.206Z,8
2023-05-12T03:09:30.820Z,4
2023-05-12T03:10:31.402Z,8
2023-05-12T03:11:32.001Z,12
2023-05-12T03:12:32.610Z,12
2023-05-12T03:13:33.197Z,12
2023-05-12T03:14:33.811Z,16
2023-05-12T03:15:34.412Z,20
2023-05-12T03:16:35.068Z,24
2023-05-12T03:17:35.742Z,24
2023-05-12T03:18:36.338Z,28
2023-05-12T03:19:36.898Z,36
2023-05-12T03:20:37.495Z,40
2023-05-12T03:21:38.099Z,48
2023-05-12T03:22:38.687Z,52
2023-05-12T03:23:39.284Z,60
2023-05-12T03:24:39.888Z,72
2023-05-12T03:25:40.483Z,84
2023-05-12T03:26:41.109Z,96
2023-05-12T03:27:41.712Z,112
2023-05-12T03:28:42.297Z,128
2023-05-12T03:29:42.906Z,140
2023-05-12T03:30:43.498Z,156
2023-05-12T03:31:44.277Z,172
2023-05-12T03:32:44.729Z,184
2023-05-12T03:33:45.314Z,204
2023-05-12T03:34:45.963Z,212
2023-05-12T03:35:46.559Z,232
2023-05-12T03:36:47.153Z,232
2023-05-12T03:37:47.768Z,260
2023-05-12T03:38:48.379Z,260
2023-05-12T03:39:48.980Z,276
2023-05-12T03:40:49.599Z,292
2023-05-12T03:41:50.200Z,284
2023-05-12T03:42:50.798Z,284
2023-05-12T03:43:51.418Z,272
2023-05-12T03:44:52.020Z,288
2023-05-12T03:45:52.630Z,288
2023-05-12T03:46:53.335Z,316
2023-05-12T03:47:54.098Z,348
2023-05-12T03:48:54.655Z,360
2023-05-12T03:49:55.260Z,392
2023-05-12T03:50:55.859Z,392
2023-05-12T03:51:56.504Z,404
2023-05-12T03:52:57.080Z,420
2023-05-12T03:53:57.680Z,432
2023-05-12T03:54:58.282Z,428
2023-05-12T03:55:58.889Z,452
2023-05-12T03:56:59.485Z,468
2023-05-12T03:58:00.103Z,528
2023-05-12T03:59:00.700Z,540
2023-05-12T04:00:01.299Z,572
2023-05-12T04:01:01.914Z,592
2023-05-12T04:02:02.520Z,620
2023-05-12T04:03:03.178Z,680
2023-05-12T04:04:03.750Z,744
2023-05-12T04:05:04.336Z,792
2023-05-12T04:06:04.940Z,844
2023-05-12T04:07:05.559Z,880
2023-05-12T04:08:06.176Z,936
2023-05-12T04:09:06.775Z,992
2023-05-12T04:10:07.377Z,1088
2023-05-12T04:11:07.976Z,1112
2023-05-12T04:12:08.596Z,1148
2023-05-12T04:13:09.187Z,1216
2023-05-12T04:14:09.780Z,1220
2023-05-12T04:15:10.383Z,1316
2023-05-12T04:16:11.012Z,1348
2023-05-12T04:17:11.584Z,1392
2023-05-12T04:18:12.196Z,1440
2023-05-12T04:19:12.782Z,1540
2023-05-12T04:20:13.392Z,1652
2023-05-12T04:21:14.009Z,1828
2023-05-12T04:22:14.630Z,1896
2023-05-12T04:23:15.233Z,1936
2023-05-12T04:24:15.828Z,2044
2023-05-12T04:25:16.482Z,2060
2023-05-12T04:26:17.061Z,2276
2023-05-12T04:27:17.666Z,2216
2023-05-12T04:28:18.272Z,2408
2023-05-12T04:29:18.865Z,2428
2023-05-12T04:30:19.605Z,2468
2023-05-12T04:31:20.473Z,2472
2023-05-12T04:32:21.045Z,2472
2023-05-12T04:33:21.695Z,2488
2023-05-12T04:34:22.284Z,2524
2023-05-12T04:35:22.888Z,2568
2023-05-12T04:36:23.492Z,2600
2023-05-12T04:37:24.109Z,2656
2023-05-12T04:38:24.710Z,2724
2023-05-12T04:39:25.313Z,2804
2023-05-12T04:40:25.933Z,2892
2023-05-12T04:41:26.538Z,2960
2023-05-12T04:42:27.159Z,2988
2023-05-12T04:44:29.354Z,3004
2023-05-12T04:45:29.962Z,3000
2023-05-12T04:46:30.735Z,2968
2023-05-12T04:47:31.342Z,2956
2023-05-12T04:48:31.906Z,2920
2023-05-12T04:49:32.509Z,2948
2023-05-12T04:50:33.135Z,2996
2023-05-12T04:51:33.742Z,3060
2023-05-12T04:52:34.354Z,3156
2023-05-12T04:53:34.953Z,3284
2023-05-12T04:54:35.574Z,3436
2023-05-12T04:55:36.171Z,3612
2023-05-12T04:56:36.784Z,3788
2023-05-12T04:57:37.393Z,3924
2023-05-12T04:58:37.988Z,4072
2023-05-12T04:59:40.515Z,4212
2023-05-12T05:00:40.184Z,4428
2023-05-12T05:01:40.868Z,4648
2023-05-12T05:02:41.577Z,4892
2023-05-12T05:03:42.375Z,5256
2023-05-12T05:04:43.035Z,5524
2023-05-12T05:05:43.638Z,5784
2023-05-12T05:06:44.236Z,6044
2023-05-12T05:07:44.842Z,6340
2023-05-12T05:08:45.444Z,6664
2023-05-12T05:09:46.044Z,7008
2023-05-12T05:10:46.651Z,7284
2023-05-12T05:11:47.267Z,7464
2023-05-12T05:12:47.865Z,7568
2023-05-12T05:13:48.472Z,7704
2023-05-12T05:14:49.076Z,7776
2023-05-12T05:15:49.710Z,7808
2023-05-12T05:16:50.288Z,7980
2023-05-12T05:17:50.921Z,7888
2023-05-12T05:18:51.564Z,8056
2023-05-12T05:19:58.351Z,8084
2023-05-12T05:20:58.507Z,8040
2023-05-12T05:21:55.185Z,8076
2023-05-12T05:22:55.789Z,7936
2023-05-12T05:23:56.392Z,7928
2023-05-12T05:24:56.993Z,7932
2023-05-12T05:25:57.597Z,7904
2023-05-12T05:26:58.196Z,7868
2023-05-12T05:27:58.801Z,7864
2023-05-12T05:28:59.401Z,7832
2023-05-12T05:30:00.045Z,7812
2023-05-12T05:31:00.649Z,7840
2023-05-12T05:32:01.225Z,7904
2023-05-12T05:33:01.860Z,8024
2023-05-12T05:34:02.461Z,8224
2023-05-12T05:35:03.028Z,8504
2023-05-12T05:36:03.641Z,8836
2023-05-12T05:37:04.233Z,9172
2023-05-12T05:38:04.866Z,9516
2023-05-12T05:39:05.478Z,9872
2023-05-12T05:40:06.100Z,10232
2023-05-12T05:41:06.703Z,10568
2023-05-12T05:42:07.312Z,10908
2023-05-12T05:43:07.904Z,11196
2023-05-12T05:44:08.512Z,11324
2023-05-12T05:45:09.113Z,11432
2023-05-12T05:46:09.732Z,11628
2023-05-12T05:47:10.406Z,11812
2023-05-12T05:48:11.065Z,12144
2023-05-12T05:49:11.618Z,12536
2023-05-12T05:50:12.235Z,13028
2023-05-12T05:51:12.821Z,13344
2023-05-12T05:52:13.427Z,13588
2023-05-12T05:53:14.027Z,13744
2023-05-12T05:54:14.636Z,13748
2023-05-12T05:55:15.228Z,13712
2023-05-12T05:56:15.842Z,13712
2023-05-12T05:57:16.434Z,13736
2023-05-12T05:58:17.042Z,13808
2023-05-12T05:59:17.660Z,13864
2023-05-12T06:00:18.263Z,13896
2023-05-12T06:01:18.863Z,13896
2023-05-12T06:02:19.478Z,13856
2023-05-12T06:03:20.247Z,13844
2023-05-12T06:04:21.029Z,13832
2023-05-12T06:05:22.007Z,13844
2023-05-12T06:06:22.338Z,13876
2023-05-12T06:07:22.948Z,13916
2023-05-12T06:08:23.544Z,13908
2023-05-12T06:09:24.178Z,13852
2023-05-12T06:10:24.772Z,13812
2023-05-12T06:11:25.374Z,13860
2023-05-12T06:12:25.974Z,14036
2023-05-12T06:13:26.583Z,14172
2023-05-12T06:14:27.201Z,14304
2023-05-12T06:15:27.820Z,14432
2023-05-12T06:16:28.462Z,14500
2023-05-12T06:17:30.745Z,14484
2023-05-12T06:18:29.722Z,14448
2023-05-12T06:19:30.290Z,14548
2023-05-12T06:20:30.886Z,14900
2023-05-12T06:21:31.493Z,15476
2023-05-12T06:22:32.111Z,16064
2023-05-12T06:23:32.717Z,16592
2023-05-12T06:24:33.320Z,16996
2023-05-12T06:25:33.925Z,17288
2023-05-12T06:26:34.522Z,17472
2023-05-12T06:27:35.129Z,17856
2023-05-12T06:28:35.729Z,17548
2023-05-12T06:29:36.333Z,17580
2023-05-12T06:30:36.937Z,17888
2023-05-12T06:31:37.571Z,18240
2023-05-12T06:32:38.180Z,18656
2023-05-12T06:33:38.775Z,19136
2023-05-12T06:34:39.554Z,19648
2023-05-12T06:35:39.999Z,20224
2023-05-12T06:36:40.603Z,20832
2023-05-12T06:37:41.229Z,21408
2023-05-12T06:38:41.858Z,21920
2023-05-12T06:39:42.465Z,22368
2023-05-12T06:40:43.065Z,22656
2023-05-12T06:41:43.653Z,23104
2023-05-12T06:42:44.286Z,23744
2023-05-12T06:43:44.877Z,24416
2023-05-12T06:44:45.508Z,24800
2023-05-12T06:45:46.103Z,24960
2023-05-12T06:46:46.754Z,25056
2023-05-12T06:47:47.464Z,25088
2023-05-12T06:48:48.062Z,24992
2023-05-12T06:49:48.656Z,24864
2023-05-12T06:50:49.257Z,24768
2023-05-12T06:51:49.866Z,24896
2023-05-12T06:52:50.461Z,25024
2023-05-12T06:53:51.063Z,25120
2023-05-12T06:54:51.666Z,25312
2023-05-12T06:55:52.266Z,25664
2023-05-12T06:56:52.867Z,26304
2023-05-12T06:57:53.474Z,26944
2023-05-12T06:58:54.078Z,27616
2023-05-12T06:59:54.707Z,28800
2023-05-12T07:00:55.300Z,29152
2023-05-12T07:01:55.990Z,29984
2023-05-12T07:02:56.547Z,30720
2023-05-12T07:03:57.194Z,31680
2023-05-12T07:04:57.826Z,32192
2023-05-12T07:05:58.438Z,32512
2023-05-12T07:06:59.045Z,32608
2023-05-12T07:07:59.637Z,32704
2023-05-12T07:09:00.228Z,32544
2023-05-12T07:10:00.830Z,32064
2023-05-12T07:11:01.458Z,31488
2023-05-12T07:12:02.055Z,31072
2023-05-12T07:13:02.659Z,30496
2023-05-12T07:14:03.290Z,29664
2023-05-12T07:15:03.881Z,28864
2023-05-12T07:16:04.559Z,28448
2023-05-12T07:17:05.168Z,28384
2023-05-12T07:18:05.763Z,28256
2023-05-12T07:19:06.477Z,27936
2023-05-12T07:20:07.069Z,27488
2023-05-12T07:21:07.663Z,27296
2023-05-12T07:22:08.289Z,27328
2023-05-12T07:23:08.891Z,27584
2023-05-12T07:24:09.516Z,27776
2023-05-12T07:25:10.133Z,27776
2023-05-12T07:26:10.737Z,27840
2023-05-12T07:27:11.343Z,28320
2023-05-12T07:28:11.961Z,29440
2023-05-12T07:29:13.975Z,30880
2023-05-12T07:30:14.163Z,32416
2023-05-12T07:31:14.788Z,33472
2023-05-12T07:32:15.377Z,34368
2023-05-12T07:33:16.001Z,35136
2023-05-12T07:34:16.645Z,35648
2023-05-12T07:35:17.458Z,37760
2023-05-12T07:36:18.520Z,42816
2023-05-12T07:37:19.470Z,40320
2023-05-12T07:38:20.063Z,41216
2023-05-12T07:39:20.662Z,39328
2023-05-12T07:40:21.291Z,38624
2023-05-12T07:41:21.923Z,37536
2023-05-12T07:42:22.537Z,36256
2023-05-12T07:43:23.254Z,35104
2023-05-12T07:44:23.875Z,34272
2023-05-12T07:45:24.497Z,33856
2023-05-12T07:46:25.181Z,33952
2023-05-12T07:47:25.756Z,34784
2023-05-12T07:48:26.328Z,36960
2023-05-12T07:49:26.929Z,38400
2023-05-12T07:50:27.527Z,40928
2023-05-12T07:51:28.127Z,41568
2023-05-12T07:52:28.748Z,43168
2023-05-12T07:53:29.359Z,42752
2023-05-12T07:54:29.985Z,42336
2023-05-12T07:55:30.601Z,40832
2023-05-12T07:56:31.181Z,40032
2023-05-12T07:57:31.799Z,40640
2023-05-12T07:58:32.411Z,40480
2023-05-12T07:59:33.006Z,43680
2023-05-12T08:00:33.602Z,42112
2023-05-12T08:01:34.207Z,41248
2023-05-12T08:02:34.966Z,40192
2023-05-12T08:03:35.663Z,39264
2023-05-12T08:04:36.330Z,39200
2023-05-12T08:05:37.172Z,40768
2023-05-12T08:06:37.691Z,43744
2023-05-12T08:07:38.289Z,40416
2023-05-12T08:08:38.900Z,38624
2023-05-12T08:09:39.487Z,37760
2023-05-12T08:10:40.086Z,37216
2023-05-12T08:11:40.694Z,37248
2023-05-12T08:12:41.294Z,38048
2023-05-12T08:13:41.915Z,39328
2023-05-12T08:14:42.521Z,40000
2023-05-12T08:15:43.113Z,40704
2023-05-12T08:16:43.826Z,41408
2023-05-12T08:17:44.422Z,41600
2023-05-12T08:18:45.016Z,40992
2023-05-12T08:19:45.613Z,40544
2023-05-12T08:20:46.223Z,40416
2023-05-12T08:21:46.837Z,40768
2023-05-12T08:22:47.443Z,41280
2023-05-12T08:23:48.051Z,41920
2023-05-12T08:24:48.675Z,42752
2023-05-12T08:25:49.292Z,42784
2023-05-12T08:26:49.898Z,42624
2023-05-12T08:27:50.503Z,42208
2023-05-12T08:28:51.098Z,41248
2023-05-12T08:29:51.700Z,40192
2023-05-12T08:30:52.326Z,39264
2023-05-12T08:31:52.908Z,38592
2023-05-12T08:32:53.661Z,38112
2023-05-12T08:34:09.154Z,38144
2023-05-12T08:34:55.720Z,38624
2023-05-12T08:35:56.432Z,39232
2023-05-12T08:36:56.949Z,39904
2023-05-12T08:37:57.568Z,40736
2023-05-12T08:38:58.174Z,41728
2023-05-12T08:39:58.773Z,42816
2023-05-12T08:40:59.378Z,43904
2023-05-12T08:41:59.999Z,45024
2023-05-12T08:43:01.867Z,46144
2023-05-12T08:44:02.199Z,47264
2023-05-12T08:45:02.806Z,47968
2023-05-12T08:46:03.420Z,48640
2023-05-12T08:47:04.010Z,49440
2023-05-12T08:48:04.705Z,50720
2023-05-12T08:49:05.253Z,52512
2023-05-12T08:50:05.855Z,54048
2023-05-12T08:51:06.502Z,54656
2023-05-12T08:52:07.071Z,55872
2023-05-12T08:53:07.679Z,56224
2023-05-12T08:54:08.273Z,56032
2023-05-12T08:55:08.878Z,56416
2023-05-12T08:57:11.080Z,57312
2023-05-12T08:58:11.682Z,55808
2023-05-12T08:59:12.284Z,59456
2023-05-12T09:00:12.885Z,53664
2023-05-12T09:01:13.586Z,53152
2023-05-12T09:02:14.342Z,53504
2023-05-12T09:03:15.017Z,54400
2023-05-12T09:04:15.604Z,53728
2023-05-12T09:05:16.207Z,54624
2023-05-12T09:06:16.814Z,57408
2023-05-12T09:07:17.414Z,57056
2023-05-12T09:08:18.023Z,58048
2023-05-12T09:09:18.642Z,60320
2023-05-12T09:10:29.872Z,59872
2023-05-12T09:11:20.284Z,59168
2023-05-12T09:12:20.885Z,57376
2023-05-12T09:13:21.535Z,60000
2023-05-12T09:14:22.112Z,70464
2023-05-12T09:15:22.908Z,61152
2023-05-12T09:16:23.682Z,62176
2023-05-12T09:17:24.233Z,66336
2023-05-12T09:18:24.837Z,68288
2023-05-12T09:19:25.392Z,63776
2023-05-12T09:20:31.386Z,71008
2023-05-12T09:21:28.067Z,69344
2023-05-12T09:22:28.584Z,65856
2023-05-12T09:23:29.188Z,64160
2023-05-12T09:24:29.793Z,63552
2023-05-12T09:25:30.392Z,62528
2023-05-12T09:26:30.998Z,61632
2023-05-12T09:27:31.602Z,61632
2023-05-12T09:28:32.223Z,62272
2023-05-12T09:29:35.880Z,65152
2023-05-12T09:30:34.433Z,66304
2023-05-12T09:31:35.111Z,69760
2023-05-12T09:32:35.746Z,66496
2023-05-12T09:33:36.344Z,68768
2023-05-12T09:34:36.949Z,71616
2023-05-12T09:35:37.574Z,67360
2023-05-12T09:36:38.217Z,70624
2023-05-12T09:37:38.833Z,74080
2023-05-12T09:38:39.453Z,71776
2023-05-12T09:39:40.062Z,75168
2023-05-12T09:40:40.658Z,74240
2023-05-12T09:41:41.262Z,76320
2023-05-12T09:42:41.869Z,72640
2023-05-12T09:43:42.477Z,69056
2023-05-12T09:44:43.096Z,75776
2023-05-12T09:45:43.709Z,74048
2023-05-12T09:46:44.333Z,76448
2023-05-12T09:47:44.999Z,74112
2023-05-12T09:48:45.578Z,70912
2023-05-12T09:49:46.185Z,91424
2023-05-12T09:50:48.131Z,113536
2023-05-12T09:51:48.390Z,100000
2023-05-12T09:52:49.010Z,85280
2023-05-12T09:53:49.611Z,161120
2023-05-12T09:54:50.248Z,139488
2023-05-12T09:55:50.823Z,68512
2023-05-12T09:56:51.448Z,86112
2023-05-12T09:57:52.051Z,84992
2023-05-12T09:58:52.665Z,112608
2023-05-12T09:59:53.263Z,129408
2023-05-12T10:01:55.545Z,118816
2023-05-12T10:02:56.164Z,100192
2023-05-12T10:03:56.790Z,90912
2023-05-12T10:04:57.368Z,107872
2023-05-12T10:05:57.950Z,115488
2023-05-12T10:06:58.590Z,115136
2023-05-12T10:07:59.184Z,97088
2023-05-12T10:08:59.785Z,117920
2023-05-12T10:10:00.409Z,126080
2023-05-12T10:11:01.021Z,123008
2023-05-12T10:12:01.632Z,102944
2023-05-12T10:13:02.235Z,91232
2023-05-12T10:14:02.854Z,92032
2023-05-12T10:15:03.464Z,100960
2023-05-12T10:16:05.269Z,112608
2023-05-12T10:17:05.893Z,114240
2023-05-12T10:18:06.549Z,109824
2023-05-12T10:19:07.165Z,102816
2023-05-12T10:20:07.725Z,90464
2023-05-12T10:21:08.328Z,77856
2023-05-12T10:22:08.980Z,74784
2023-05-12T10:23:09.895Z,81728
2023-05-12T10:24:10.411Z,93696
2023-05-12T10:25:11.022Z,105472
2023-05-12T10:26:11.650Z,109440
2023-05-12T10:27:12.240Z,106752
2023-05-12T10:28:12.861Z,92096
2023-05-12T10:29:13.453Z,74144
2023-05-12T10:30:14.076Z,65408
2023-05-12T10:31:14.729Z,72864
2023-05-12T10:32:15.304Z,97600
2023-05-12T10:33:15.922Z,116000
2023-05-12T10:34:16.526Z,120384
2023-05-12T10:35:17.158Z,108480
2023-05-12T10:36:17.750Z,87072
2023-05-12T10:37:18.358Z,74144
2023-05-12T10:38:18.971Z,74080
2023-05-12T10:39:19.604Z,88672
2023-05-12T10:40:20.196Z,112960
2023-05-12T10:41:20.798Z,132736
2023-05-12T10:42:21.404Z,141472
2023-05-12T10:43:22.014Z,136736
2023-05-12T10:44:22.619Z,120416
2023-05-12T10:45:23.314Z,111744
2023-05-12T10:46:23.853Z,111712
2023-05-12T10:47:24.489Z,122592
2023-05-12T10:48:25.064Z,132096
2023-05-12T10:49:25.664Z,133664
2023-05-12T10:50:26.266Z,125152
2023-05-12T10:51:26.873Z,113024
2023-05-12T10:52:27.499Z,102272
2023-05-12T10:53:38.078Z,100064
2023-05-12T10:54:29.698Z,105760
2023-05-12T10:55:30.349Z,103232
2023-05-12T10:56:31.214Z,126528
2023-05-12T10:57:32.019Z,129504
2023-05-12T10:58:33.185Z,117376
2023-05-12T10:59:34.446Z,101984
2023-05-12T11:00:35.407Z,83488
2023-05-12T11:01:37.452Z,80768
2023-05-12T11:02:39.166Z,86976
2023-05-12T11:03:39.956Z,95840
2023-05-12T11:04:41.547Z,105696
2023-05-12T11:05:42.512Z,114048
2023-05-12T11:06:43.411Z,110432
2023-05-12T11:07:44.164Z,103584
2023-05-12T11:08:45.625Z,98528
2023-05-12T11:10:47.737Z,90080
2023-05-12T11:11:48.367Z,90144
2023-05-12T11:12:49.918Z,104800
2023-05-12T11:13:50.545Z,123552
2023-05-12T11:14:51.164Z,133600
2023-05-12T11:15:51.814Z,135040
2023-05-12T11:16:52.375Z,119808
2023-05-12T11:17:53.024Z,100896
2023-05-12T11:18:53.661Z,95168
2023-05-12T11:19:54.253Z,108352
2023-05-12T11:20:54.857Z,128416
2023-05-12T11:21:55.456Z,149824
2023-05-12T11:22:56.218Z,160544
2023-05-12T11:23:56.727Z,154336
2023-05-12T11:24:57.418Z,133472
2023-05-12T11:25:58.068Z,125888
2023-05-12T11:26:58.654Z,140032
2023-05-12T11:27:59.256Z,161856
2023-05-12T11:28:59.865Z,185984
2023-05-12T11:30:00.474Z,196448
2023-05-12T11:31:01.064Z,181856
2023-05-12T11:32:01.777Z,144192
2023-05-12T11:33:02.502Z,111552
2023-05-12T11:34:12.085Z,101856
2023-05-12T11:35:03.640Z,111104
2023-05-12T11:36:04.246Z,128768
2023-05-12T11:37:04.880Z,140160
2023-05-12T11:38:05.511Z,140864
2023-05-12T11:39:06.113Z,135360
2023-05-12T11:40:06.719Z,130976
2023-05-12T11:41:07.339Z,135936
2023-05-12T11:42:12.887Z,151616
2023-05-12T11:43:09.570Z,168544
2023-05-12T11:44:10.164Z,172224
2023-05-12T11:45:10.785Z,164192
2023-05-12T11:46:11.439Z,154944
2023-05-12T11:47:11.992Z,144384
2023-05-12T11:48:12.653Z,138592
2023-05-12T11:49:13.270Z,133696
2023-05-12T11:50:13.873Z,130208
2023-05-12T11:51:14.481Z,135968
2023-05-12T11:52:15.110Z,147424
2023-05-12T11:53:15.685Z,147680
2023-05-12T11:54:16.281Z,137568
2023-05-12T11:55:16.913Z,128960
2023-05-12T11:56:17.534Z,121024
2023-05-12T11:57:18.158Z,110432
2023-05-12T11:58:18.757Z,99904
2023-05-12T11:59:19.366Z,91232
2023-05-12T12:00:19.983Z,84096
2023-05-12T12:01:20.585Z,83904
2023-05-12T12:02:21.225Z,99680
2023-05-12T12:03:21.936Z,122880
2023-05-12T12:04:22.487Z,138336
2023-05-12T12:05:23.274Z,134624
2023-05-12T12:06:23.910Z,37376
2023-05-12T12:07:24.514Z,123488
2023-05-12T12:08:25.124Z,118208
2023-05-12T12:09:25.720Z,124960
2023-05-12T12:10:26.347Z,39008
2023-05-12T12:11:26.952Z,25888
2023-05-12T12:12:27.573Z,127840
2023-05-12T12:13:28.175Z,143456
2023-05-12T12:14:28.775Z,141856
2023-05-12T12:15:29.384Z,146144
2023-05-12T12:16:30.033Z,136064
2023-05-12T12:17:30.878Z,134784
2023-05-12T12:18:31.308Z,137664
2023-05-12T12:19:31.894Z,133920
2023-05-12T12:20:32.520Z,119136
2023-05-12T12:21:33.122Z,107104
2023-05-12T12:22:33.723Z,105376
2023-05-12T12:23:40.599Z,105536
2023-05-12T12:24:35.918Z,110272
2023-05-12T12:25:36.527Z,117088
2023-05-12T12:26:38.911Z,134528
2023-05-12T12:27:38.725Z,126368
2023-05-12T12:28:39.330Z,102784
2023-05-12T12:29:39.972Z,76352
2023-05-12T12:30:40.568Z,67776
2023-05-12T12:31:41.219Z,88416
2023-05-12T12:32:41.805Z,121120
2023-05-12T12:33:42.392Z,147040
2023-05-12T12:34:43.006Z,149472
2023-05-12T12:35:43.642Z,135456
2023-05-12T12:36:44.237Z,118656
2023-05-12T12:37:44.840Z,108096
2023-05-12T12:38:45.455Z,107264
2023-05-12T12:39:46.068Z,123712
2023-05-12T12:40:46.667Z,148352
2023-05-12T12:41:47.275Z,165504
2023-05-12T12:42:47.876Z,166400
2023-05-12T12:43:48.505Z,147520
2023-05-12T12:44:49.102Z,119136
2023-05-12T12:45:49.706Z,95904
2023-05-12T12:46:50.333Z,88192
2023-05-12T12:47:50.943Z,103104
2023-05-12T12:48:51.544Z,132320
2023-05-12T12:49:52.144Z,160032
2023-05-12T12:50:52.763Z,175424
2023-05-12T12:51:53.370Z,178336
2023-05-12T12:52:53.974Z,165984
2023-05-12T12:53:54.581Z,141152
2023-05-12T12:54:55.180Z,113248
2023-05-12T12:55:55.785Z,89344
2023-05-12T12:56:56.388Z,84992
2023-05-12T12:57:56.992Z,107392
2023-05-12T12:58:57.597Z,146240
2023-05-12T12:59:58.198Z,176896
2023-05-12T13:00:58.848Z,193440
2023-05-12T13:01:59.457Z,182368
2023-05-12T13:03:00.101Z,137472
2023-05-12T13:04:00.815Z,92480
2023-05-12T13:05:01.437Z,71872
2023-05-12T13:06:02.012Z,90112
2023-05-12T13:07:02.614Z,128160
2023-05-12T13:08:03.222Z,163936
2023-05-12T13:09:03.829Z,178240
2023-05-12T13:10:04.451Z,167744
2023-05-12T13:11:05.071Z,138720
2023-05-12T13:12:05.656Z,101056
2023-05-12T13:13:06.285Z,82144
2023-05-12T13:14:06.887Z,90432
2023-05-12T13:15:07.484Z,114752
2023-05-12T13:16:08.106Z,146720
2023-05-12T13:17:08.727Z,168512
2023-05-12T13:18:09.339Z,171200
2023-05-12T13:19:10.123Z,146688
2023-05-12T13:20:11.075Z,110240
2023-05-12T13:21:11.594Z,86688
2023-05-12T13:22:12.215Z,86112
2023-05-12T13:23:12.814Z,104352
2023-05-12T13:24:13.411Z,133568
2023-05-12T13:25:14.020Z,153920
2023-05-12T13:26:14.646Z,162624
2023-05-12T13:27:15.249Z,164960
2023-05-12T13:28:15.871Z,158144
2023-05-12T13:29:16.476Z,137664
2023-05-12T13:30:17.080Z,110272
2023-05-12T13:31:17.726Z,96096